Time;durP1;ratioP1;P1;durP2;ratioP2;P2;SDS_P1;SDS_P2;PMS_P1;PMS_P2;Temp;Humidity;BMP_temperature;BMP_pressure;BME280_temperature;BME280_humidity;BME280_pressure;Samples;Min_cycle;Max_cycle;Signal;HPM_P1;HPM_P2
2022/01/15 00:01:04;;;;;;;10.07;7.38;;;4.30;98.70;;;;;;5018455;28;20041;-67
2022/01/15 00:03:30;;;;;;;12.38;7.72;;;4.20;98.80;;;;;;5020795;28;20108;-68
2022/01/15 00:05:56;;;;;;;10.50;7.28;;;4.20;98.70;;;;;;5019006;28;20057;-67
2022/01/15 00:08:22;;;;;;;9.52;6.50;;;4.10;99.00;;;;;;5020108;28;20727;-66
2022/01/15 00:10:48;;;;;;;8.93;6.68;;;4.00;99.10;;;;;;5019848;28;20027;-67
2022/01/15 00:13:25;;;;;;;11.50;7.65;;;3.90;99.20;;;;;;5020602;28;20042;-67
2022/01/15 00:16:01;;;;;;;11.48;6.88;;;3.90;99.40;;;;;;5024585;28;20069;-68
2022/01/15 00:18:40;;;;;;;10.88;7.30;;;3.80;99.40;;;;;;5019439;28;20057;-67
2022/01/15 00:21:07;;;;;;;8.55;6.15;;;3.90;99.30;;;;;;5019120;28;20447;-68
2022/01/15 00:23:32;;;;;;;9.85;7.10;;;3.90;99.40;;;;;;5016211;28;21869;-68
2022/01/15 00:25:58;;;;;;;8.35;6.35;;;3.70;99.50;;;;;;5013769;28;20514;-67
2022/01/15 00:28:23;;;;;;;8.43;5.70;;;3.80;99.30;;;;;;5018745;28;20028;-68
2022/01/15 00:30:49;;;;;;;8.35;6.53;;;3.90;98.90;;;;;;5018691;28;20057;-68
2022/01/15 00:33:15;;;;;;;8.85;6.70;;;4.00;98.90;;;;;;5016578;28;20037;-68
2022/01/15 00:35:40;;;;;;;9.75;6.47;;;4.10;98.60;;;;;;5021742;28;20085;-68
2022/01/15 00:38:06;;;;;;;12.27;7.78;;;4.20;98.40;;;;;;5020984;28;20036;-68
2022/01/15 00:40:32;;;;;;;8.30;6.28;;;4.30;98.20;;;;;;5023274;28;20029;-68
2022/01/15 00:42:57;;;;;;;9.63;6.43;;;4.30;98.10;;;;;;5022187;28;20492;-67
2022/01/15 00:45:23;;;;;;;8.25;6.25;;;4.00;98.40;;;;;;5020235;28;20679;-68
2022/01/15 00:47:50;;;;;;;8.50;5.72;;;3.80;99.10;;;;;;5021103;28;20036;-68
2022/01/15 00:50:16;;;;;;;7.05;5.18;;;3.80;98.70;;;;;;5019011;28;20049;-67
2022/01/15 00:52:42;;;;;;;4.72;3.38;;;4.00;98.40;;;;;;5024766;28;20022;-68
2022/01/15 00:55:11;;;;;;;3.83;2.67;;;4.10;97.50;;;;;;5018669;28;20500;-68
2022/01/15 00:57:37;;;;;;;3.08;2.28;;;4.20;97.00;;;;;;5020580;28;20357;-68
2022/01/15 01:00:04;;;;;;;3.25;2.10;;;4.40;96.20;;;;;;5023271;28;20052;-67
2022/01/15 01:02:30;;;;;;;2.25;1.50;;;4.50;95.70;;;;;;5022006;28;20112;-67
2022/01/15 01:04:55;;;;;;;3.08;2.17;;;4.70;95.50;;;;;;5018112;28;20099;-68
2022/01/15 01:07:21;;;;;;;4.00;2.05;;;4.70;94.90;;;;;;5019927;28;20034;-68
2022/01/15 01:10:03;;;;;;;3.10;1.83;;;4.80;94.70;;;;;;5018285;28;20139;-67
2022/01/15 01:20:38;;;;;;;4.18;2.38;;;5.20;93.60;;;;;;5020998;28;20060;-68
2022/01/15 01:23:04;;;;;;;4.50;1.98;;;5.30;93.60;;;;;;5022250;28;20037;-67
2022/01/15 01:25:43;;;;;;;2.95;1.48;;;5.20;92.80;;;;;;5018452;28;20044;-67
2022/01/15 01:28:14;;;;;;;2.60;1.33;;;5.20;92.40;;;;;;5021290;28;20026;-67
2022/01/15 01:31:07;;;;;;;1.48;1.38;;;5.30;92.50;;;;;;5014432;28;20432;-68
2022/01/15 01:33:34;;;;;;;3.13;1.48;;;5.30;92.20;;;;;;5023705;28;20638;-67
2022/01/15 01:38:42;;;;;;;3.15;1.80;;;5.20;92.20;;;;;;5020478;28;20040;-68
2022/01/15 01:41:14;;;;;;;3.67;2.85;;;5.10;92.40;;;;;;5020951;28;20061;-67
2022/01/15 01:43:46;;;;;;;3.60;2.17;;;5.20;93.00;;;;;;5020941;28;20084;-68
2022/01/15 01:48:43;;;;;;;7.35;4.72;;;5.00;93.90;;;;;;5018670;28;20046;-67
2022/01/15 01:51:24;;;;;;;5.15;4.32;;;4.90;94.40;;;;;;5023414;28;20023;-68
2022/01/15 01:53:51;;;;;;;8.02;5.20;;;4.70;95.10;;;;;;5019575;28;20026;-67
2022/01/15 01:56:19;;;;;;;6.05;4.70;;;4.60;95.50;;;;;;5017932;28;20036;-68
2022/01/15 01:58:46;;;;;;;7.95;5.95;;;4.60;95.90;;;;;;5023108;28;20070;-68
2022/01/15 02:01:12;;;;;;;7.65;5.53;;;4.60;96.30;;;;;;5021484;28;20026;-68
2022/01/15 02:03:38;;;;;;;7.68;5.60;;;4.60;96.80;;;;;;5017290;28;20718;-68
2022/01/15 02:06:04;;;;;;;6.88;4.43;;;4.40;97.00;;;;;;5019312;28;20032;-68
2022/01/15 02:08:33;;;;;;;9.25;5.93;;;4.10;97.60;;;;;;5018159;28;20034;-67
2022/01/15 02:11:00;;;;;;;8.05;5.72;;;4.00;97.90;;;;;;5022633;28;20076;-67
2022/01/15 02:13:26;;;;;;;7.90;6.20;;;3.90;98.30;;;;;;5019419;28;20033;-68
2022/01/15 02:15:51;;;;;;;7.40;5.32;;;3.80;98.50;;;;;;5019061;28;20068;-68
2022/01/15 02:18:18;;;;;;;7.95;5.45;;;3.70;98.60;;;;;;5020476;28;20033;-67
2022/01/15 02:25:58;;;;;;;8.98;5.65;;;3.50;98.40;;;;;;5017120;28;20045;-66
2022/01/15 02:28:28;;;;;;;6.40;5.03;;;3.50;98.90;;;;;;5017417;28;20052;-67
2022/01/15 02:30:55;;;;;;;7.47;5.82;;;3.60;99.20;;;;;;5017154;28;20112;-67
2022/01/15 02:33:22;;;;;;;7.55;5.75;;;3.60;99.70;;;;;;5016785;28;20041;-67
2022/01/15 02:35:48;;;;;;;8.65;6.13;;;3.50;99.80;;;;;;5019347;28;20037;-68
2022/01/15 02:38:13;;;;;;;7.20;5.38;;;3.40;99.90;;;;;;5018092;28;20543;-68
2022/01/15 02:40:40;;;;;;;10.10;5.78;;;3.40;99.90;;;;;;5021606;28;20121;-67
2022/01/15 02:43:09;;;;;;;8.70;5.43;;;3.40;99.90;;;;;;5020333;28;20040;-66
2022/01/15 02:45:36;;;;;;;6.53;4.68;;;3.40;99.80;;;;;;5011958;28;20066;-67
2022/01/15 02:48:12;;;;;;;6.63;4.78;;;3.40;99.50;;;;;;5016304;28;20078;-68
2022/01/15 02:50:39;;;;;;;6.68;4.75;;;3.50;99.40;;;;;;5015514;28;20049;-68
2022/01/15 02:53:11;;;;;;;7.55;4.68;;;3.50;99.20;;;;;;5016379;28;20104;-67
2022/01/15 02:55:49;;;;;;;6.07;3.95;;;3.50;99.00;;;;;;5016133;28;20041;-68
2022/01/15 02:58:17;;;;;;;4.82;3.20;;;3.60;99.20;;;;;;5017994;28;20492;-68
2022/01/15 03:00:44;;;;;;;5.25;3.30;;;3.80;98.50;;;;;;5015480;28;20045;-67
2022/01/15 03:03:09;;;;;;;5.40;3.50;;;4.00;97.20;;;;;;5015754;28;20116;-67
2022/01/15 03:05:35;;;;;;;5.13;3.40;;;4.10;97.00;;;;;;5016030;28;20029;-67
2022/01/15 03:08:01;;;;;;;6.15;3.63;;;4.30;96.50;;;;;;5017692;28;20033;-67
2022/01/15 03:10:27;;;;;;;5.35;3.42;;;4.40;95.70;;;;;;5016221;28;20033;-67
2022/01/15 03:12:54;;;;;;;5.90;3.42;;;4.50;95.30;;;;;;5018126;28;20034;-68
2022/01/15 03:15:20;;;;;;;5.72;3.38;;;4.50;95.40;;;;;;5015307;28;20551;-68
2022/01/15 03:17:49;;;;;;;4.78;3.05;;;4.60;95.10;;;;;;5013052;28;20034;-67
2022/01/15 03:20:18;;;;;;;5.78;3.58;;;4.70;94.90;;;;;;5013801;28;20037;-68
2022/01/15 03:22:44;;;;;;;4.25;3.22;;;4.40;95.40;;;;;;5015096;28;20037;-67
2022/01/15 03:25:11;;;;;;;4.50;3.15;;;4.10;95.90;;;;;;5013223;28;20030;-68
2022/01/15 03:27:37;;;;;;;6.15;3.10;;;4.20;95.60;;;;;;5014563;28;20104;-68
2022/01/15 03:30:05;;;;;;;5.40;3.17;;;4.30;95.30;;;;;;5011568;28;20083;-68
2022/01/15 03:32:31;;;;;;;4.82;2.85;;;4.40;95.00;;;;;;5016523;28;20037;-68
2022/01/15 03:34:56;;;;;;;5.35;3.00;;;4.40;94.80;;;;;;5018604;28;20500;-68
2022/01/15 03:37:22;;;;;;;5.25;2.53;;;4.30;94.80;;;;;;5022527;28;20045;-68
2022/01/15 03:39:48;;;;;;;3.95;2.55;;;4.30;94.30;;;;;;5018793;28;20030;-68
2022/01/15 03:42:13;;;;;;;6.50;1.70;;;4.30;94.30;;;;;;5021508;28;20021;-68
2022/01/15 03:44:47;;;;;;;3.58;1.45;;;4.40;92.80;;;;;;5017833;28;20053;-67
2022/01/15 03:47:14;;;;;;;3.88;1.42;;;4.60;91.50;;;;;;5019385;28;20767;-68
2022/01/15 03:49:40;;;;;;;4.43;1.50;;;4.60;90.70;;;;;;5016160;28;20041;-68
2022/01/15 03:52:07;;;;;;;3.80;1.42;;;4.70;90.20;;;;;;5020616;28;20061;-68
2022/01/15 03:54:33;;;;;;;3.35;1.38;;;4.80;89.60;;;;;;5015964;28;20072;-68
2022/01/15 03:56:59;;;;;;;2.63;1.42;;;4.80;89.10;;;;;;5018147;28;20038;-68
2022/01/15 03:59:25;;;;;;;2.83;1.40;;;4.80;89.10;;;;;;5019730;28;20120;-68
2022/01/15 04:01:51;;;;;;;3.42;1.48;;;4.90;88.50;;;;;;5017985;28;20105;-68
2022/01/15 04:04:18;;;;;;;6.10;3.22;;;4.90;88.70;;;;;;5015909;28;21189;-67
2022/01/15 04:06:44;;;;;;;4.65;2.53;;;4.90;91.20;;;;;;5017124;28;20105;-66
2022/01/15 04:09:11;;;;;;;6.78;3.15;;;4.80;92.20;;;;;;5016410;28;20124;-67
2022/01/15 04:11:37;;;;;;;5.78;3.35;;;4.80;92.60;;;;;;5017423;28;20045;-68
2022/01/15 04:14:04;;;;;;;4.40;2.90;;;4.70;92.90;;;;;;5017521;28;20044;-66
2022/01/15 04:16:30;;;;;;;4.65;2.70;;;4.70;93.30;;;;;;5022811;28;20149;-67
2022/01/15 04:18:59;;;;;;;5.45;2.80;;;4.60;93.30;;;;;;5020311;28;20523;-68
2022/01/15 04:21:26;;;;;;;5.60;2.75;;;4.70;93.00;;;;;;5023319;28;20380;-68
2022/01/15 04:23:52;;;;;;;4.38;2.25;;;4.70;92.90;;;;;;5015944;28;20034;-67
2022/01/15 04:26:23;;;;;;;4.43;1.95;;;4.80;92.20;;;;;;5015594;28;20080;-67
2022/01/15 04:28:49;;;;;;;3.55;1.50;;;4.80;91.90;;;;;;5020403;28;20042;-67
2022/01/15 04:31:16;;;;;;;3.17;1.73;;;4.80;89.50;;;;;;5021113;28;20136;-68
2022/01/15 04:33:42;;;;;;;6.30;3.05;;;5.00;90.60;;;;;;5023680;28;20033;-68
2022/01/15 04:36:07;;;;;;;3.60;1.88;;;5.10;90.60;;;;;;5022785;28;20419;-68
2022/01/15 04:38:37;;;;;;;5.25;1.85;;;5.00;90.00;;;;;;5020596;28;20021;-68
2022/01/15 04:41:03;;;;;;;5.80;2.10;;;5.00;90.10;;;;;;5022604;28;20082;-68
2022/01/15 04:43:29;;;;;;;3.17;2.00;;;5.10;89.00;;;;;;5019404;28;20029;-68
2022/01/15 04:45:54;;;;;;;3.35;1.60;;;5.10;89.30;;;;;;5021048;28;20044;-68
2022/01/15 04:48:20;;;;;;;4.72;1.65;;;5.20;88.70;;;;;;5019005;28;20033;-68
2022/01/15 04:50:46;;;;;;;3.80;2.10;;;5.30;87.40;;;;;;5019090;28;20062;-68
2022/01/15 04:53:11;;;;;;;4.22;1.92;;;5.30;87.00;;;;;;5022844;28;20037;-68
2022/01/15 04:55:38;;;;;;;4.15;2.00;;;5.30;86.80;;;;;;5019707;28;20040;-68
2022/01/15 04:58:05;;;;;;;5.60;1.90;;;5.30;86.90;;;;;;5019694;28;20605;-67
2022/01/15 05:00:31;;;;;;;3.55;2.38;;;5.20;86.00;;;;;;5017311;28;20026;-68
2022/01/15 05:02:57;;;;;;;5.65;2.08;;;5.20;85.70;;;;;;5019365;28;20029;-68
2022/01/15 05:05:24;;;;;;;6.85;2.33;;;5.20;84.70;;;;;;5019361;28;20037;-68
2022/01/15 05:07:52;;;;;;;4.75;2.33;;;5.20;84.90;;;;;;5021734;28;20715;-68
2022/01/15 05:10:20;;;;;;;5.18;2.33;;;5.20;83.90;;;;;;5022723;28;20033;-68
2022/01/15 05:12:48;;;;;;;6.22;1.80;;;5.20;83.30;;;;;;5019176;28;20399;-67
2022/01/15 05:15:15;;;;;;;5.20;2.08;;;5.30;82.90;;;;;;5017463;28;20044;-67
2022/01/15 05:17:41;;;;;;;6.82;1.98;;;5.40;83.60;;;;;;5020525;28;20026;-66
2022/01/15 05:20:09;;;;;;;4.90;1.52;;;5.40;83.70;;;;;;5019656;28;20045;-67
2022/01/15 05:22:35;;;;;;;4.05;1.50;;;5.40;79.10;;;;;;5020005;28;20103;-66
2022/01/15 05:25:02;;;;;;;5.10;1.30;;;5.30;80.90;;;;;;5017156;28;20439;-67
2022/01/15 05:27:28;;;;;;;3.13;1.05;;;5.30;80.80;;;;;;5019151;28;20037;-67
2022/01/15 05:29:53;;;;;;;5.20;1.77;;;5.30;78.40;;;;;;5020809;28;20079;-68
2022/01/15 05:32:19;;;;;;;3.47;1.58;;;5.30;79.80;;;;;;5020590;28;20022;-67
2022/01/15 05:34:47;;;;;;;4.93;1.48;;;5.30;78.70;;;;;;5019673;28;20042;-67
2022/01/15 05:37:13;;;;;;;4.75;2.08;;;5.30;80.70;;;;;;5019451;28;20037;-68
2022/01/15 05:39:39;;;;;;;6.13;1.98;;;5.20;79.20;;;;;;5020873;28;20044;-67
2022/01/15 05:42:05;;;;;;;3.55;1.52;;;5.10;79.50;;;;;;5014543;28;20064;-67
2022/01/15 05:44:31;;;;;;;3.92;2.20;;;5.10;78.90;;;;;;5017702;28;20037;-67
2022/01/15 05:46:56;;;;;;;5.88;2.40;;;5.20;79.80;;;;;;5018794;28;20033;-67
2022/01/15 05:49:22;;;;;;;4.72;1.80;;;5.20;79.00;;;;;;5019018;28;20510;-67
2022/01/15 05:51:51;;;;;;;7.03;1.67;;;5.10;78.20;;;;;;5018353;28;20617;-67
2022/01/15 05:54:16;;;;;;;3.83;1.70;;;5.10;78.30;;;;;;5019316;28;20037;-68
2022/01/15 05:56:42;;;;;;;4.85;1.25;;;5.20;78.30;;;;;;5016157;28;20042;-67
2022/01/15 05:59:08;;;;;;;3.65;1.83;;;5.20;77.80;;;;;;5018120;28;20758;-68
2022/01/15 06:01:35;;;;;;;3.25;1.77;;;5.10;78.50;;;;;;5016500;28;20064;-67
2022/01/15 06:04:00;;;;;;;6.68;2.00;;;5.00;81.10;;;;;;5019156;28;20774;-68
2022/01/15 06:06:26;;;;;;;5.18;2.03;;;4.80;82.80;;;;;;5020915;28;20040;-68
2022/01/15 06:08:52;;;;;;;6.03;2.00;;;4.70;80.80;;;;;;5019065;28;20033;-68
2022/01/15 06:11:18;;;;;;;6.50;1.50;;;4.80;79.60;;;;;;5016165;28;20034;-68
2022/01/15 06:13:44;;;;;;;6.80;2.03;;;4.90;79.00;;;;;;5015876;28;20037;-67
2022/01/15 06:16:10;;;;;;;3.17;1.08;;;5.00;77.10;;;;;;5020710;28;20036;-67
2022/01/15 06:18:36;;;;;;;4.95;1.70;;;5.00;75.10;;;;;;5020919;28;20037;-68
2022/01/15 06:21:02;;;;;;;5.90;1.98;;;5.00;75.60;;;;;;5021048;28;20405;-67
2022/01/15 06:23:27;;;;;;;10.70;5.25;;;5.10;77.00;;;;;;5016371;28;20446;-68
2022/01/15 06:25:53;;;;;;;9.52;4.07;;;5.10;77.60;;;;;;5017790;28;20037;-68
2022/01/15 06:28:19;;;;;;;4.63;2.50;;;5.20;77.20;;;;;;5015820;28;20078;-68
2022/01/15 06:30:44;;;;;;;6.05;3.15;;;5.20;77.40;;;;;;5022329;28;20028;-68
2022/01/15 06:33:10;;;;;;;6.38;2.92;;;5.10;79.60;;;;;;5016004;28;20036;-68
2022/01/15 06:35:36;;;;;;;7.60;2.50;;;5.00;81.60;;;;;;5016478;28;20041;-68
2022/01/15 06:38:02;;;;;;;7.70;3.53;;;4.80;83.20;;;;;;5018509;28;20038;-69
2022/01/15 06:40:28;;;;;;;4.97;3.03;;;4.60;82.80;;;;;;5020146;28;20022;-69
2022/01/15 06:42:54;;;;;;;7.30;5.30;;;4.50;85.70;;;;;;5020551;28;20037;-69
2022/01/15 06:45:20;;;;;;;12.32;6.88;;;4.30;87.20;;;;;;5014679;28;20041;-69
2022/01/15 06:47:45;;;;;;;7.15;3.92;;;4.10;88.90;;;;;;5015401;28;20492;-68
2022/01/15 06:50:11;;;;;;;6.72;3.08;;;4.00;88.70;;;;;;5016521;28;20053;-69
2022/01/15 06:52:38;;;;;;;10.35;4.43;;;4.00;87.80;;;;;;5014506;28;20119;-67
2022/01/15 06:55:05;;;;;;;9.73;3.85;;;4.10;87.80;;;;;;5021726;28;20856;-68
2022/01/15 06:57:31;;;;;;;6.75;3.50;;;4.10;86.20;;;;;;5018339;28;20041;-69
2022/01/15 06:59:57;;;;;;;8.45;3.30;;;4.20;86.20;;;;;;5016845;28;20044;-67
2022/01/15 07:02:23;;;;;;;8.73;4.53;;;4.20;85.10;;;;;;5017423;28;20022;-69
2022/01/15 07:04:48;;;;;;;9.95;4.85;;;4.40;83.80;;;;;;5018423;28;20368;-69
2022/01/15 07:07:14;;;;;;;8.43;4.82;;;4.30;86.60;;;;;;5016004;28;20045;-68
2022/01/15 07:09:40;;;;;;;11.40;7.47;;;4.10;90.00;;;;;;5017075;28;20415;-68
2022/01/15 07:12:06;;;;;;;17.63;8.50;;;3.70;91.10;;;;;;5013753;28;20032;-68
2022/01/15 07:14:32;;;;;;;10.00;6.78;;;3.40;91.70;;;;;;5020832;28;20049;-69
2022/01/15 07:16:57;;;;;;;7.95;5.65;;;3.30;92.30;;;;;;5017748;28;20041;-69
2022/01/15 07:19:23;;;;;;;8.27;5.03;;;3.40;91.90;;;;;;5019084;28;20036;-68
2022/01/15 07:21:49;;;;;;;11.90;4.60;;;3.60;90.70;;;;;;5013759;28;20044;-67
2022/01/15 07:24:16;;;;;;;7.30;2.45;;;3.80;89.00;;;;;;5020226;28;20025;-66
2022/01/15 07:26:42;;;;;;;8.43;3.00;;;4.00;85.10;;;;;;5016030;28;20766;-68
2022/01/15 07:29:14;;;;;;;5.63;1.80;;;4.20;86.50;;;;;;5020376;28;20260;-68
2022/01/15 07:31:41;;;;;;;8.57;1.75;;;4.30;83.60;;;;;;5016286;28;20060;-68
2022/01/15 07:34:07;;;;;;;4.70;1.52;;;4.60;77.40;;;;;;5017691;28;20046;-67
2022/01/15 07:36:35;;;;;;;3.00;1.48;;;4.80;76.70;;;;;;5014927;28;20144;-66
2022/01/15 07:39:01;;;;;;;4.82;1.33;;;4.90;75.40;;;;;;5020554;28;20092;-68
2022/01/15 07:41:27;;;;;;;4.10;1.17;;;5.00;74.70;;;;;;5015937;28;20037;-68
2022/01/15 07:43:52;;;;;;;4.88;2.42;;;5.00;71.70;;;;;;5016811;28;20036;-68
2022/01/15 07:46:18;;;;;;;3.00;1.40;;;4.70;81.00;;;;;;5014393;28;20033;-67
2022/01/15 07:48:44;;;;;;;3.80;1.20;;;4.70;80.20;;;;;;5015311;28;20043;-67
2022/01/15 07:51:09;;;;;;;6.90;2.55;;;4.90;76.10;;;;;;5021789;28;20715;-66
2022/01/15 07:53:35;;;;;;;5.50;1.70;;;5.00;75.90;;;;;;5020718;28;20064;-66
2022/01/15 07:56:01;;;;;;;6.80;1.60;;;5.20;75.50;;;;;;5022812;28;20113;-65
2022/01/15 07:58:26;;;;;;;5.55;2.10;;;5.20;77.20;;;;;;5021685;28;20033;-67
2022/01/15 08:00:52;;;;;;;8.98;3.90;;;5.40;76.60;;;;;;5020602;28;20609;-66
2022/01/15 08:03:18;;;;;;;8.20;4.20;;;5.70;75.90;;;;;;5018527;28;20085;-66
2022/01/15 08:05:44;;;;;;;8.50;3.42;;;6.00;74.10;;;;;;5020989;28;20061;-66
2022/01/15 08:08:10;;;;;;;5.43;2.60;;;6.30;74.00;;;;;;5023856;28;20022;-67
2022/01/15 08:10:36;;;;;;;5.10;2.25;;;6.50;72.90;;;;;;5019571;28;20034;-66
2022/01/15 08:13:02;;;;;;;5.80;2.17;;;6.40;72.50;;;;;;5017592;28;20034;-63
2022/01/15 08:15:28;;;;;;;7.47;2.70;;;6.60;70.80;;;;;;5016411;28;20053;-64
2022/01/15 08:17:54;;;;;;;4.40;2.40;;;7.00;73.30;;;;;;5020365;28;20061;-67
2022/01/15 08:20:20;;;;;;;9.43;3.67;;;7.20;72.80;;;;;;5019671;28;20479;-66
2022/01/15 08:22:46;;;;;;;13.23;7.97;;;7.30;70.60;;;;;;5019923;28;20026;-67
2022/01/15 08:25:18;;;;;;;7.03;3.70;;;7.50;69.10;;;;;;5014461;28;20029;-67
2022/01/15 08:27:47;;;;;;;3.95;1.67;;;7.40;65.80;;;;;;5018530;28;20664;-67
2022/01/15 08:30:13;;;;;;;3.05;1.13;;;7.20;63.20;;;;;;5016946;28;20025;-67
2022/01/15 08:32:39;;;;;;;4.65;1.70;;;7.20;61.30;;;;;;5025428;28;20038;-66
2022/01/15 08:35:06;;;;;;;3.60;1.40;;;7.00;63.10;;;;;;5018281;28;20039;-67
2022/01/15 08:37:32;;;;;;;3.33;1.50;;;7.00;59.30;;;;;;5019706;28;20411;-66
2022/01/15 08:39:58;;;;;;;3.70;1.58;;;7.00;60.30;;;;;;5018309;28;20061;-66
2022/01/15 08:42:24;;;;;;;2.95;0.90;;;7.30;63.00;;;;;;5018465;28;20693;-67
2022/01/15 08:44:51;;;;;;;6.75;1.63;;;7.30;59.40;;;;;;5019386;28;20033;-67
2022/01/15 08:47:17;;;;;;;4.53;1.15;;;7.00;61.10;;;;;;5019312;28;20391;-66
2022/01/15 08:49:44;;;;;;;4.50;1.35;;;7.10;60.80;;;;;;5019389;28;20053;-67
2022/01/15 08:52:09;;;;;;;4.90;1.38;;;7.20;59.80;;;;;;5018855;28;20022;-66
2022/01/15 08:54:35;;;;;;;7.03;3.30;;;7.20;60.50;;;;;;5021324;28;20059;-67
2022/01/15 08:57:01;;;;;;;3.50;1.35;;;7.20;61.40;;;;;;5020371;28;20045;-66
2022/01/15 08:59:27;;;;;;;15.73;9.55;;;7.00;59.90;;;;;;5021939;28;20036;-66
2022/01/15 09:01:59;;;;;;;9.32;3.92;;;7.00;61.20;;;;;;5013019;28;20036;-65
2022/01/15 09:04:24;;;;;;;6.18;2.63;;;7.20;64.40;;;;;;5014998;28;20519;-67
2022/01/15 09:06:51;;;;;;;8.57;3.55;;;7.10;66.00;;;;;;5023279;28;20038;-65
2022/01/15 09:09:17;;;;;;;5.18;2.20;;;7.20;66.60;;;;;;5021238;28;20053;-65
2022/01/15 09:11:44;;;;;;;4.75;1.50;;;7.20;63.40;;;;;;5016732;28;20036;-63
2022/01/15 09:14:11;;;;;;;3.20;1.35;;;7.20;61.40;;;;;;5017987;28;20065;-64
2022/01/15 09:16:38;;;;;;;3.10;0.93;;;7.20;60.80;;;;;;5019071;28;20029;-65
2022/01/15 09:19:04;;;;;;;3.92;2.20;;;7.30;59.50;;;;;;5019542;28;20059;-65
2022/01/15 09:21:30;;;;;;;4.78;1.38;;;7.30;59.60;;;;;;5017812;28;20108;-64
2022/01/15 09:23:56;;;;;;;6.38;3.60;;;7.40;60.70;;;;;;5016467;28;20488;-64
2022/01/15 09:26:34;;;;;;;10.63;5.03;;;7.20;64.00;;;;;;5015643;28;20112;-64
2022/01/15 09:31:44;;;;;;;16.50;6.63;;;7.00;65.70;;;;;;5015967;28;20087;-64
2022/01/15 09:34:10;;;;;;;9.82;4.28;;;7.30;64.80;;;;;;5016318;28;20037;-65
2022/01/15 09:36:35;;;;;;;12.65;5.28;;;7.50;64.00;;;;;;5014888;28;20033;-66
2022/01/15 09:39:02;;;;;;;4.35;2.30;;;7.50;63.80;;;;;;5018207;28;20079;-65
2022/01/15 09:41:28;;;;;;;3.50;1.65;;;7.50;60.70;;;;;;5017421;28;20021;-66
2022/01/15 09:43:55;;;;;;;6.75;1.58;;;7.50;61.20;;;;;;5016531;28;20567;-65
2022/01/15 09:46:21;;;;;;;5.53;2.05;;;7.50;60.80;;;;;;5019463;28;20029;-65
2022/01/15 09:48:48;;;;;;;6.90;1.98;;;7.50;61.60;;;;;;5015413;28;20108;-65
2022/01/15 09:51:14;;;;;;;5.95;1.92;;;7.60;61.50;;;;;;5010610;28;20030;-65
2022/01/15 09:53:42;;;;;;;6.57;2.10;;;7.60;60.30;;;;;;5021663;28;20099;-65
2022/01/15 09:56:09;;;;;;;6.78;2.63;;;7.60;61.10;;;;;;5017219;28;20060;-66
2022/01/15 09:58:35;;;;;;;45.75;27.00;;;7.60;59.60;;;;;;5009093;28;20022;-65
2022/01/15 10:01:01;;;;;;;7.50;2.90;;;7.60;59.80;;;;;;5012493;28;20029;-65
2022/01/15 10:03:27;;;;;;;6.30;3.67;;;7.50;59.20;;;;;;5017804;28;20034;-67
2022/01/15 10:05:53;;;;;;;5.25;2.00;;;7.50;58.80;;;;;;5017406;28;20037;-66
2022/01/15 10:08:20;;;;;;;10.48;4.07;;;7.50;59.30;;;;;;5016157;28;20026;-66
2022/01/15 10:10:53;;;;;;;5.28;3.13;;;7.50;59.00;;;;;;5015706;28;20034;-66
2022/01/15 10:13:21;;;;;;;4.20;1.25;;;7.40;59.00;;;;;;5020157;28;20045;-66
2022/01/15 10:15:49;;;;;;;5.28;1.45;;;7.20;58.30;;;;;;5018780;28;20048;-66
2022/01/15 10:18:33;;;;;;;6.20;1.90;;;7.10;60.00;;;;;;5013006;28;20399;-66
2022/01/15 10:21:29;;;;;;;6.45;2.92;;;7.10;59.50;;;;;;5015445;28;20419;-66
2022/01/15 10:23:57;;;;;;;3.00;1.67;;;7.20;59.40;;;;;;5018482;28;20068;-66
2022/01/15 10:26:25;;;;;;;4.95;1.75;;;7.10;57.40;;;;;;5014904;28;20029;-67
2022/01/15 10:29:06;;;;;;;3.65;1.50;;;7.00;59.00;;;;;;5017638;28;20035;-65
2022/01/15 10:31:43;;;;;;;10.70;6.18;;;7.10;58.40;;;;;;5017640;28;20034;-66
2022/01/15 10:34:42;;;;;;;21.83;15.93;;;7.30;59.90;;;;;;5017219;28;20036;-67
2022/01/15 10:37:15;;;;;;;5.45;3.03;;;7.40;59.30;;;;;;4981496;28;20045;-66
2022/01/15 10:39:52;;;;;;;6.47;2.53;;;7.50;58.20;;;;;;5018152;28;20033;-66
2022/01/15 10:42:23;;;;;;;3.50;1.65;;;7.20;56.90;;;;;;5015146;28;20029;-65
2022/01/15 10:44:58;;;;;;;4.97;1.55;;;7.20;56.30;;;;;;5018239;28;20038;-66
2022/01/15 10:47:28;;;;;;;2.28;1.15;;;7.20;57.90;;;;;;5010566;28;20038;-65
2022/01/15 10:50:03;;;;;;;4.68;1.70;;;7.40;58.50;;;;;;5015971;28;20050;-66
2022/01/15 10:52:31;;;;;;;5.20;2.60;;;7.50;58.40;;;;;;5012170;28;20029;-66
2022/01/15 10:55:11;;;;;;;8.40;3.53;;;7.70;58.50;;;;;;5015043;28;20489;-67
2022/01/15 10:57:42;;;;;;;6.68;3.03;;;7.90;56.70;;;;;;5014192;28;20045;-66
2022/01/15 11:00:20;;;;;;;3.72;1.08;;;8.00;56.60;;;;;;5013721;28;20025;-67
2022/01/15 11:02:49;;;;;;;2.78;1.15;;;8.00;52.90;;;;;;5019654;28;20017;-67
2022/01/15 11:05:33;;;;;;;1.92;1.10;;;8.00;51.60;;;;;;5013261;28;20029;-66
2022/01/15 11:08:04;;;;;;;3.45;0.93;;;8.00;49.70;;;;;;5029123;28;20049;-66
2022/01/15 11:10:42;;;;;;;7.07;1.05;;;7.90;49.00;;;;;;5017138;28;20029;-67
2022/01/15 11:13:11;;;;;;;1.92;0.57;;;7.90;50.10;;;;;;5018489;28;20026;-65
2022/01/15 11:15:39;;;;;;;3.90;1.13;;;8.00;49.20;;;;;;5018920;28;20079;-64
2022/01/15 11:18:05;;;;;;;3.58;1.45;;;7.90;51.00;;;;;;5015474;28;20032;-64
2022/01/15 11:20:33;;;;;;;3.30;1.20;;;7.70;52.90;;;;;;5013796;28;20046;-65
2022/01/15 11:23:03;;;;;;;7.63;2.40;;;7.70;54.80;;;;;;5017564;28;20071;-65
2022/01/15 11:25:29;;;;;;;5.82;2.30;;;7.80;54.00;;;;;;5019015;28;20104;-66
2022/01/15 11:27:57;;;;;;;3.63;1.83;;;7.90;53.70;;;;;;5021795;28;20026;-64
2022/01/15 11:30:23;;;;;;;4.28;1.75;;;7.70;53.50;;;;;;5021164;28;20025;-65
2022/01/15 11:32:50;;;;;;;6.38;1.30;;;7.60;53.10;;;;;;5020926;28;20079;-65
2022/01/15 11:35:16;;;;;;;3.22;1.40;;;7.70;54.40;;;;;;5016425;28;20057;-65
2022/01/15 11:37:53;;;;;;;4.50;1.05;;;7.70;54.90;;;;;;5020080;28;20507;-64
2022/01/15 11:40:45;;;;;;;5.25;1.00;;;7.80;54.00;;;;;;5020329;28;20029;-64
2022/01/15 11:43:26;;;;;;;3.38;1.45;;;7.80;54.50;;;;;;5016838;28;20029;-65
2022/01/15 11:45:57;;;;;;;2.53;1.17;;;7.80;52.00;;;;;;5014501;28;20559;-64
2022/01/15 11:48:33;;;;;;;3.38;0.90;;;7.80;49.80;;;;;;5019422;28;20044;-66
2022/01/15 11:51:13;;;;;;;2.08;0.70;;;7.80;49.60;;;;;;5018791;28;20053;-66
2022/01/15 11:53:53;;;;;;;3.25;1.40;;;7.80;51.90;;;;;;5022005;28;20048;-65
2022/01/15 11:56:23;;;;;;;3.22;1.40;;;7.80;52.20;;;;;;5016710;28;20029;-66
2022/01/15 11:58:49;;;;;;;3.05;1.15;;;7.90;52.90;;;;;;5017787;28;20721;-65
2022/01/15 12:01:42;;;;;;;6.05;1.50;;;7.90;53.20;;;;;;5017357;28;20048;-65
2022/01/15 12:04:33;;;;;;;3.90;1.30;;;8.00;52.80;;;;;;5019286;28;20068;-66
2022/01/15 12:07:05;;;;;;;6.13;1.58;;;8.00;53.80;;;;;;5020015;28;20030;-65
2022/01/15 12:09:31;;;;;;;3.03;1.27;;;8.10;53.50;;;;;;5017560;28;20029;-65
2022/01/15 12:11:56;;;;;;;4.70;1.58;;;8.20;51.40;;;;;;5019678;28;20038;-64
2022/01/15 12:14:47;;;;;;;6.53;2.35;;;8.20;52.40;;;;;;5019988;28;20044;-66
2022/01/15 12:17:25;;;;;;;5.43;2.13;;;8.20;52.30;;;;;;5018713;28;20044;-66
2022/01/15 12:19:52;;;;;;;10.13;1.92;;;8.20;52.80;;;;;;5019257;28;20464;-66
2022/01/15 12:22:43;;;;;;;5.35;1.50;;;8.10;52.00;;;;;;5020235;28;20029;-65
2022/01/15 12:25:28;;;;;;;4.03;1.38;;;8.00;53.00;;;;;;5023018;28;20029;-66
2022/01/15 12:28:03;;;;;;;5.97;1.30;;;8.00;52.00;;;;;;5019116;28;20633;-65
2022/01/15 12:30:37;;;;;;;4.78;1.50;;;8.00;52.60;;;;;;5025575;28;20032;-65
2022/01/15 12:33:05;;;;;;;3.47;1.40;;;8.10;53.00;;;;;;5020976;28;20442;-66
2022/01/15 12:35:41;;;;;;;2.97;1.13;;;8.20;52.40;;;;;;5025922;28;20034;-67
2022/01/15 12:38:15;;;;;;;7.00;2.60;;;8.20;53.00;;;;;;5024383;28;20475;-66
2022/01/15 12:40:59;;;;;;;3.70;1.30;;;8.30;52.80;;;;;;5023101;28;20017;-67
2022/01/15 12:43:33;;;;;;;3.90;1.33;;;8.30;52.40;;;;;;5025577;28;20032;-67
2022/01/15 12:46:01;;;;;;;3.97;1.30;;;8.20;51.00;;;;;;5021765;28;20757;-66
2022/01/15 12:48:30;;;;;;;3.88;1.40;;;8.10;51.20;;;;;;5023535;28;20522;-66
2022/01/15 12:50:58;;;;;;;3.75;1.23;;;8.00;51.60;;;;;;5021906;28;20083;-66
2022/01/15 12:53:26;;;;;;;3.20;1.05;;;8.00;52.10;;;;;;5023769;28;20065;-67
2022/01/15 12:55:53;;;;;;;4.65;1.75;;;8.10;52.70;;;;;;5021812;28;20044;-66
2022/01/15 12:58:22;;;;;;;10.35;3.75;;;8.10;52.60;;;;;;5024299;28;20376;-67
2022/01/15 13:00:48;;;;;;;6.45;2.03;;;8.20;52.30;;;;;;5021959;28;20056;-66
2022/01/15 13:03:17;;;;;;;7.85;1.85;;;8.30;50.70;;;;;;5019889;28;20029;-66
2022/01/15 13:05:55;;;;;;;5.57;1.55;;;8.30;51.00;;;;;;5018074;28;20034;-67
2022/01/15 13:08:40;;;;;;;10.73;5.38;;;8.20;52.10;;;;;;5023658;28;20037;-66
2022/01/15 13:13:44;;;;;;;8.82;5.25;;;8.40;52.80;;;;;;5024059;28;20045;-66
2022/01/15 13:16:12;;;;;;;3.42;1.48;;;8.50;52.60;;;;;;5019179;28;20037;-66
2022/01/15 13:19:06;;;;;;;5.22;1.60;;;8.60;51.80;;;;;;5023437;28;20427;-66
2022/01/15 13:21:40;;;;;;;9.10;5.10;;;8.50;49.40;;;;;;5016203;28;20037;-66
2022/01/15 13:24:11;;;;;;;8.77;4.85;;;8.50;51.00;;;;;;5021130;28;20047;-66
2022/01/15 13:26:42;;;;;;;7.18;2.10;;;8.60;51.10;;;;;;5028855;28;20517;-66